createdAt,value
2023-08-17T00:06:34.971Z,97737.47
2023-08-17T00:11:40.008Z,97723.38
2023-08-17T00:16:43.894Z,97732.09
2023-08-17T00:21:47.873Z,97723.56
2023-08-17T00:26:52.789Z,97704.66
2023-08-17T00:31:56.280Z,97692.94
2023-08-17T00:36:59.899Z,97707.88
2023-08-17T00:42:05.083Z,97696.75
2023-08-17T00:47:08.490Z,97731.47
2023-08-17T00:52:12.287Z,97729.81
2023-08-17T00:57:17.218Z,97727.78
2023-08-17T01:02:21.624Z,97711.88
2023-08-17T01:07:25.377Z,97734.47
2023-08-17T01:12:32.728Z,97686.03
2023-08-17T01:17:40.720Z,97700.31
2023-08-17T01:22:44.865Z,97734.63
2023-08-17T01:27:49.705Z,97709.69
2023-08-17T01:32:56.721Z,97630.13
2023-08-17T01:38:02.144Z,97592.16
2023-08-17T01:43:07.460Z,97614.91
2023-08-17T01:48:10.928Z,97633.97
2023-08-17T01:53:15.153Z,97634.66
2023-08-17T01:58:20.087Z,97645.38
2023-08-17T02:03:23.640Z,97631.81
2023-08-17T02:08:27.288Z,97616.00
2023-08-17T02:13:32.319Z,97606.19
2023-08-17T02:18:40.129Z,97610.38
2023-08-17T02:23:43.645Z,97582.06
2023-08-17T02:28:48.332Z,97597.50
2023-08-17T02:33:51.975Z,97590.06
2023-08-17T02:38:55.520Z,97595.38
2023-08-17T02:44:00.462Z,97579.16
2023-08-17T02:49:04.562Z,97562.25
2023-08-17T02:54:08.455Z,97565.31
2023-08-17T02:59:13.152Z,97564.41
2023-08-17T03:04:16.582Z,97568.75
2023-08-17T03:09:19.920Z,97573.84
2023-08-17T03:14:25.516Z,97563.84
2023-08-17T03:19:29.021Z,97554.28
2023-08-17T03:24:32.514Z,97564.66
2023-08-17T03:29:37.475Z,97563.50
2023-08-17T03:34:40.845Z,97567.69
2023-08-17T03:39:44.535Z,97559.66
2023-08-17T03:44:49.346Z,97554.47
2023-08-17T03:49:54.155Z,97558.03
2023-08-17T03:54:57.470Z,97560.31
2023-08-17T04:00:02.388Z,97553.94
2023-08-17T04:05:07.101Z,97563.69
2023-08-17T04:10:11.163Z,97568.53
2023-08-17T04:15:16.132Z,97567.53
2023-08-17T04:20:20.516Z,97565.53
2023-08-17T04:25:23.892Z,97560.00
2023-08-17T04:30:30.190Z,97557.00
2023-08-17T04:35:37.563Z,97560.69
2023-08-17T04:40:41.016Z,97562.19
2023-08-17T04:45:48.991Z,97566.53
2023-08-17T04:50:53.736Z,97567.53
2023-08-17T04:55:57.319Z,97567.38
2023-08-17T05:01:02.806Z,97569.38
2023-08-17T05:06:06.346Z,97571.56
2023-08-17T05:11:11.464Z,97566.69
2023-08-17T05:16:16.623Z,97565.84
2023-08-17T05:21:20.134Z,97571.75
2023-08-17T05:26:23.822Z,97568.34
2023-08-17T05:31:28.820Z,97574.09
2023-08-17T05:36:33.118Z,97571.91
2023-08-17T05:41:36.468Z,97576.19
2023-08-17T05:46:41.173Z,97579.66
2023-08-17T05:51:44.752Z,97576.41
2023-08-17T05:56:48.631Z,97584.31
2023-08-17T06:01:53.393Z,97570.88
2023-08-17T06:06:57.347Z,97571.53
2023-08-17T06:12:00.639Z,97573.50
2023-08-17T06:17:05.959Z,97575.63
2023-08-17T06:22:09.435Z,97585.22
2023-08-17T06:27:16.221Z,97577.53
2023-08-17T06:32:21.041Z,97582.16
2023-08-17T06:37:24.608Z,97580.97
2023-08-17T06:42:28.221Z,97593.91
2023-08-17T06:47:33.088Z,97605.03
2023-08-17T06:52:36.411Z,97598.25
2023-08-17T06:57:40.063Z,97599.66
2023-08-17T07:02:53.662Z,97609.00
2023-08-17T07:08:00.349Z,97602.41
2023-08-17T07:13:04.467Z,97609.84
2023-08-17T07:18:09.546Z,97605.97
2023-08-17T07:23:12.859Z,97607.31
2023-08-17T07:28:17.026Z,97604.94
2023-08-17T07:33:21.761Z,97608.28
2023-08-17T07:38:25.158Z,97609.56
2023-08-17T07:43:28.416Z,97609.59
2023-08-17T07:48:34.955Z,97614.63
2023-08-17T07:53:38.844Z,97619.13
2023-08-17T07:58:42.245Z,97619.50
2023-08-17T08:03:47.353Z,97609.25
2023-08-17T08:08:50.937Z,97605.72
2023-08-17T08:13:54.221Z,97601.63
2023-08-17T08:18:59.189Z,97603.22
2023-08-17T08:24:02.657Z,97604.06
2023-08-17T08:29:06.381Z,97595.94
2023-08-17T08:34:11.009Z,97597.16
2023-08-17T08:39:14.789Z,97603.03
2023-08-17T08:44:18.393Z,97603.03
2023-08-17T08:49:25.623Z,97597.31
2023-08-17T08:54:29.682Z,97601.13
2023-08-17T08:59:33.720Z,97605.59
2023-08-17T09:04:38.533Z,97606.84
2023-08-17T09:09:42.233Z,97602.28
2023-08-17T09:14:45.668Z,97604.47
2023-08-17T09:19:51.565Z,97594.06
2023-08-17T09:24:54.721Z,97589.06
2023-08-17T09:30:04.680Z,97598.22
2023-08-17T09:35:10.378Z,97593.47
2023-08-17T09:40:13.931Z,97603.59
2023-08-17T09:45:19.835Z,97598.44
2023-08-17T09:50:26.309Z,97600.28
2023-08-17T09:55:29.972Z,97599.84
2023-08-17T10:00:33.931Z,97597.41
2023-08-17T10:05:41.160Z,97588.03
2023-08-17T10:10:46.563Z,97594.03
2023-08-17T10:15:55.488Z,97594.00
2023-08-17T10:21:05.998Z,97598.00
2023-08-17T10:26:10.115Z,97603.13
2023-08-17T10:31:13.660Z,97585.56
2023-08-17T10:36:19.093Z,97599.75
2023-08-17T10:41:22.627Z,97595.06
2023-08-17T10:46:36.556Z,97589.56
2023-08-17T10:51:45.508Z,97595.50
2023-08-17T10:56:48.931Z,97591.00
2023-08-17T11:01:54.186Z,97591.66
2023-08-17T11:07:05.187Z,97597.13
2023-08-17T11:12:08.722Z,97597.16
2023-08-17T11:17:11.934Z,97591.81
2023-08-17T11:22:19.184Z,97593.59
2023-08-17T11:27:23.621Z,97587.84
2023-08-17T11:32:27.156Z,97593.44
2023-08-17T11:37:32.178Z,97602.47
2023-08-17T11:42:35.657Z,97595.50
2023-08-17T11:47:40.432Z,97601.44
2023-08-17T11:52:46.667Z,97596.59
2023-08-17T11:57:50.078Z,97597.41
2023-08-17T12:02:54.432Z,97590.69
2023-08-17T12:07:59.410Z,97601.66
2023-08-17T12:13:02.853Z,97589.69
2023-08-17T12:18:07.016Z,97592.00
2023-08-17T12:23:11.836Z,97594.97
2023-08-17T12:28:15.337Z,97590.44
2023-08-17T12:33:18.723Z,97586.13
2023-08-17T12:38:25.689Z,97573.59
2023-08-17T12:43:29.260Z,97567.69
2023-08-17T12:48:36.189Z,97562.38
2023-08-17T12:53:41.613Z,97559.41
2023-08-17T12:58:45.306Z,97559.47
2023-08-17T13:03:48.819Z,97562.34
2023-08-17T13:08:53.557Z,97561.78
2023-08-17T13:13:57.029Z,97553.72
2023-08-17T13:19:00.218Z,97554.41
2023-08-17T13:24:05.631Z,97552.78
2023-08-17T13:29:10.303Z,97540.38
2023-08-17T13:34:13.660Z,97542.50
2023-08-17T13:39:18.408Z,97551.16
2023-08-17T13:44:21.800Z,97547.47
2023-08-17T13:49:25.285Z,97532.34
2023-08-17T13:54:30.869Z,97534.03
2023-08-17T13:59:34.321Z,97533.22
2023-08-17T14:04:37.562Z,97540.91
2023-08-17T14:09:46.637Z,97530.63
2023-08-17T14:14:57.747Z,97534.41
2023-08-17T14:20:01.322Z,97541.59
2023-08-17T14:25:07.315Z,97557.19
2023-08-17T14:30:11.029Z,97554.75
2023-08-17T14:35:14.547Z,97559.53
2023-08-17T14:40:19.757Z,97550.34
2023-08-17T14:45:23.498Z,97556.78
2023-08-17T14:50:29.075Z,97547.69
2023-08-17T14:55:34.218Z,97543.13
2023-08-17T15:00:37.830Z,97539.81
2023-08-17T15:05:41.933Z,97548.91
2023-08-17T15:10:46.981Z,97528.69
2023-08-17T15:15:50.482Z,97525.97
2023-08-17T15:20:55.435Z,97512.75
2023-08-17T15:26:00.286Z,97518.75
2023-08-17T15:31:05.575Z,97533.25
2023-08-17T15:36:09.079Z,97536.78
2023-08-17T15:41:13.730Z,97540.91
2023-08-17T15:46:17.173Z,97552.22
2023-08-17T15:51:20.572Z,97559.41
2023-08-17T15:56:25.568Z,97554.22
2023-08-17T16:01:29.943Z,97556.53
2023-08-17T16:06:33.269Z,97555.16
2023-08-17T16:11:38.147Z,97552.06
2023-08-17T16:16:41.643Z,97542.31
2023-08-17T16:21:45.129Z,97539.09
2023-08-17T16:26:49.833Z,97534.28
2023-08-17T16:32:09.025Z,97522.31
2023-08-17T16:37:12.915Z,97520.47
2023-08-17T16:42:19.375Z,97521.03
2023-08-17T16:47:27.253Z,97525.41
2023-08-17T16:52:30.845Z,97532.91
2023-08-17T16:57:35.867Z,97521.28
2023-08-17T17:02:39.129Z,97522.13
2023-08-17T17:07:43.251Z,97528.34
2023-08-17T17:12:48.139Z,97522.31
2023-08-17T17:17:51.651Z,97514.81
2023-08-17T17:22:54.966Z,97537.28
2023-08-17T17:27:59.977Z,97542.69
2023-08-17T17:33:03.265Z,97555.38
2023-08-17T17:38:06.631Z,97578.66
2023-08-17T17:43:11.267Z,97595.66
2023-08-17T17:48:14.750Z,97593.69
2023-08-17T17:53:18.515Z,97599.19
2023-08-17T17:58:23.291Z,97586.28
2023-08-17T18:03:29.017Z,97581.69
2023-08-17T18:08:34.054Z,97573.03
2023-08-17T18:13:38.895Z,97571.66
2023-08-17T18:18:42.143Z,97563.53
2023-08-17T18:23:45.337Z,97582.72
2023-08-17T18:28:50.117Z,97580.66
2023-08-17T18:33:53.417Z,97586.06
2023-08-17T18:38:56.654Z,97591.19
2023-08-17T18:44:01.339Z,97586.19
2023-08-17T18:49:04.799Z,97592.72
2023-08-17T18:54:08.374Z,97593.69
2023-08-17T18:59:12.857Z,97609.50
2023-08-17T19:04:16.076Z,97606.03
2023-08-17T19:09:19.310Z,97608.09
2023-08-17T19:14:24.277Z,97600.97
2023-08-17T19:19:27.651Z,97612.72
2023-08-17T19:24:31.172Z,97602.94
2023-08-17T19:29:36.020Z,97619.78
2023-08-17T19:34:39.955Z,97609.47
2023-08-17T19:39:43.301Z,97607.22
2023-08-17T19:44:48.138Z,97605.19
2023-08-17T19:49:51.575Z,97607.81
2023-08-17T19:54:55.712Z,97607.81
2023-08-17T20:00:00.412Z,97610.31
2023-08-17T20:05:05.428Z,97612.38
2023-08-17T20:10:09.705Z,97597.38
2023-08-17T20:15:14.859Z,97600.16
2023-08-17T20:20:20.037Z,97610.19
2023-08-17T20:25:23.336Z,97604.38
2023-08-17T20:30:28.224Z,97611.91
2023-08-17T20:35:31.443Z,97615.84
2023-08-17T20:40:34.675Z,97614.22
2023-08-17T20:45:40.758Z,97621.03
2023-08-17T20:50:46.322Z,97613.31
2023-08-17T20:55:50.995Z,97614.19
2023-08-17T21:00:56.951Z,97624.63
2023-08-17T21:06:04.766Z,97621.75
2023-08-17T21:11:08.867Z,97636.69
2023-08-17T21:16:13.794Z,97633.63
2023-08-17T21:21:17.216Z,97639.56
2023-08-17T21:26:20.714Z,97646.53
2023-08-17T21:31:25.537Z,97634.53
2023-08-17T21:36:29.390Z,97634.63
2023-08-17T21:41:32.628Z,97625.13
2023-08-17T21:46:37.534Z,97623.31
2023-08-17T21:51:41.104Z,97624.81
2023-08-17T21:56:44.678Z,97626.75
2023-08-17T22:01:49.458Z,97618.66
2023-08-17T22:06:52.750Z,97631.16
2023-08-17T22:11:56.090Z,97632.69
2023-08-17T22:17:00.755Z,97623.47
2023-08-17T22:22:05.610Z,97623.94
2023-08-17T22:27:08.954Z,97628.84
2023-08-17T22:32:13.889Z,97621.78
2023-08-17T22:37:18.714Z,97613.13
2023-08-17T22:42:22.611Z,97616.47
2023-08-17T22:47:27.611Z,97614.69
2023-08-17T22:52:31.241Z,97620.63
2023-08-17T22:57:34.635Z,97617.47
2023-08-17T23:02:39.321Z,97617.34
2023-08-17T23:07:42.750Z,97623.28
2023-08-17T23:12:46.126Z,97617.25
2023-08-17T23:17:51.121Z,97619.84
2023-08-17T23:22:54.468Z,97621.16
2023-08-17T23:27:58.009Z,97620.19
2023-08-17T23:33:02.849Z,97626.75
2023-08-17T23:38:06.410Z,97611.34
2023-08-17T23:43:09.647Z,97614.38
2023-08-17T23:48:14.468Z,97607.56
2023-08-17T23:53:18.134Z,97612.22
2023-08-17T23:58:22.266Z,97605.88
